Terminal Aerodrome Forecast
Issued by NWS

Current Version | Previous Version | Text Only | Print | Product List | Glossary Off
Versions: 1 2 3 4 5 6 7 8 9 10 11 12 13 14 15 16 17 18 19 20 21 22 23 24 25 26 27 28 29

000
FTUS42 KILM 260900 AAA
TAFCRE
TAF AMD
KCRE 260947Z 2610/2706 11010KT 5SM -RA BR SCT012 BKN050
     FM261200 31012G20KT 6SM -RA BKN006 OVC020
     FM261800 30011KT P6SM BKN020 BKN050
     FM270000 27004KT P6SM SCT050=

USA.gov is the U.S. government's official web portal to all federal, state and local government web resources and services.